createdAt,value
2022-12-31T00:01:19.577Z,63.14
2022-12-31T00:03:45.945Z,64.38
2022-12-31T00:06:12.923Z,64.98
2022-12-31T00:08:39.239Z,65.65
2022-12-31T00:11:05.521Z,66.38
2022-12-31T00:13:31.818Z,66.64
2022-12-31T00:16:12.036Z,67.14
2022-12-31T00:18:38.825Z,66.93
2022-12-31T00:21:06.097Z,67.95
2022-12-31T00:23:32.388Z,68.53
2022-12-31T00:26:02.140Z,67.24
2022-12-31T00:28:29.016Z,66.39
2022-12-31T00:30:55.321Z,65.36
2022-12-31T00:33:21.625Z,64.04
2022-12-31T00:35:47.905Z,62.90
2022-12-31T00:38:14.206Z,62.06
2022-12-31T00:40:40.502Z,62.01
2022-12-31T00:43:06.797Z,61.66
2022-12-31T00:45:33.058Z,61.42
2022-12-31T00:47:59.324Z,61.43
2022-12-31T00:50:25.619Z,61.41
2022-12-31T00:52:51.943Z,61.47
2022-12-31T00:55:18.234Z,61.06
2022-12-31T00:57:44.551Z,61.95
2022-12-31T01:00:11.172Z,62.67
2022-12-31T01:02:37.607Z,64.58
2022-12-31T01:05:04.126Z,64.56
2022-12-31T01:07:30.403Z,63.25
2022-12-31T01:09:56.712Z,62.29
2022-12-31T01:12:24.086Z,63.05
2022-12-31T01:14:50.382Z,63.17
2022-12-31T01:17:17.228Z,63.43
2022-12-31T01:19:43.522Z,63.12
2022-12-31T01:22:09.935Z,63.79
2022-12-31T01:24:36.222Z,64.63
2022-12-31T01:27:02.498Z,65.40
2022-12-31T01:29:29.555Z,67.18
2022-12-31T01:31:55.853Z,67.47
2022-12-31T01:34:22.120Z,66.70
2022-12-31T01:36:48.449Z,66.41
2022-12-31T01:39:14.728Z,65.57
2022-12-31T01:41:42.899Z,66.17
2022-12-31T01:44:12.200Z,64.94
2022-12-31T01:46:54.738Z,64.26
2022-12-31T01:49:40.942Z,63.71
2022-12-31T01:52:07.172Z,63.09
2022-12-31T01:54:33.961Z,62.79
2022-12-31T01:57:00.236Z,62.65
2022-12-31T01:59:26.641Z,62.27
2022-12-31T02:01:52.995Z,62.74
2022-12-31T02:04:19.296Z,62.55
2022-12-31T02:06:50.075Z,62.98
2022-12-31T02:09:16.365Z,63.65
2022-12-31T02:11:42.658Z,63.38
2022-12-31T02:14:13.481Z,63.56
2022-12-31T02:16:58.690Z,63.30
2022-12-31T02:19:32.479Z,63.09
2022-12-31T02:22:08.695Z,62.79
2022-12-31T02:25:00.408Z,61.99
2022-12-31T02:27:26.683Z,62.17
2022-12-31T02:29:52.887Z,62.25
2022-12-31T02:32:24.708Z,63.43
2022-12-31T02:34:52.303Z,64.83
2022-12-31T02:37:18.581Z,64.14
2022-12-31T02:39:44.902Z,63.43
2022-12-31T02:42:11.208Z,63.30
2022-12-31T02:44:37.951Z,62.80
2022-12-31T02:47:33.898Z,62.88
2022-12-31T02:50:03.363Z,63.88
2022-12-31T02:52:38.730Z,64.35
2022-12-31T02:55:09.154Z,63.49
2022-12-31T02:57:40.210Z,63.34
2022-12-31T03:00:26.345Z,62.94
2022-12-31T03:02:52.741Z,62.72
2022-12-31T03:05:21.154Z,62.19
2022-12-31T03:07:47.435Z,63.07
2022-12-31T03:10:13.771Z,63.73
2022-12-31T03:12:46.620Z,63.37
2022-12-31T03:15:20.455Z,63.57
2022-12-31T03:17:50.538Z,62.64
2022-12-31T03:20:35.246Z,62.27
2022-12-31T03:23:01.782Z,62.47
2022-12-31T03:25:40.076Z,62.75
2022-12-31T03:28:11.127Z,62.25
2022-12-31T03:30:38.017Z,62.53
2022-12-31T03:33:04.626Z,62.50
2022-12-31T03:35:31.443Z,63.69
2022-12-31T03:37:57.820Z,62.47
2022-12-31T03:40:24.868Z,62.53
2022-12-31T03:42:51.166Z,62.13
2022-12-31T03:45:17.546Z,62.16
2022-12-31T03:47:43.918Z,62.17
2022-12-31T03:50:10.550Z,62.25
2022-12-31T03:52:36.864Z,62.12
2022-12-31T03:55:03.273Z,63.15
2022-12-31T03:57:29.605Z,64.36
2022-12-31T03:59:55.898Z,64.11
2022-12-31T04:02:28.329Z,63.75
2022-12-31T04:04:55.463Z,63.41
2022-12-31T04:07:21.782Z,63.31
2022-12-31T04:09:48.086Z,63.25
2022-12-31T04:12:14.369Z,63.62
2022-12-31T04:14:40.767Z,65.77
2022-12-31T04:17:07.048Z,65.90
2022-12-31T04:19:33.335Z,65.27
2022-12-31T04:21:59.634Z,64.27
2022-12-31T04:24:25.923Z,64.46
2022-12-31T04:26:52.219Z,63.68
2022-12-31T04:29:18.660Z,64.39
2022-12-31T04:31:45.007Z,63.87
2022-12-31T04:34:11.482Z,64.33
2022-12-31T04:36:37.793Z,63.99
2022-12-31T04:39:04.072Z,64.84
2022-12-31T04:41:30.442Z,63.56
2022-12-31T04:43:57.132Z,63.35
2022-12-31T04:46:24.925Z,62.60
2022-12-31T04:48:51.232Z,62.22
2022-12-31T04:51:17.535Z,62.35
2022-12-31T04:53:43.822Z,62.51
2022-12-31T04:56:10.147Z,62.68
2022-12-31T04:58:36.479Z,62.23
2022-12-31T05:01:02.964Z,62.39
2022-12-31T05:03:29.323Z,62.27
2022-12-31T05:05:59.751Z,61.65
2022-12-31T05:08:26.026Z,61.99
2022-12-31T05:10:52.319Z,62.65
2022-12-31T05:13:18.624Z,64.48
2022-12-31T05:15:45.697Z,64.67
2022-12-31T05:18:12.077Z,64.82
2022-12-31T05:20:38.359Z,64.23
2022-12-31T05:23:04.653Z,63.90
2022-12-31T05:25:31.048Z,63.86
2022-12-31T05:27:57.338Z,62.94
2022-12-31T05:30:23.766Z,63.41
2022-12-31T05:32:50.055Z,64.47
2022-12-31T05:35:16.351Z,63.77
2022-12-31T05:37:42.787Z,62.92
2022-12-31T05:40:09.401Z,62.83
2022-12-31T05:42:35.707Z,61.71
2022-12-31T05:45:01.984Z,61.86
2022-12-31T05:47:28.256Z,61.00
2022-12-31T05:49:54.537Z,61.72
2022-12-31T05:52:20.842Z,61.36
2022-12-31T05:54:47.139Z,61.86
2022-12-31T05:57:13.436Z,62.38
2022-12-31T05:59:39.719Z,61.99
2022-12-31T06:02:05.995Z,61.81
2022-12-31T06:04:32.294Z,61.30
2022-12-31T06:06:58.702Z,62.19
2022-12-31T06:09:24.987Z,61.57
2022-12-31T06:11:51.259Z,61.51
2022-12-31T06:14:17.618Z,61.71
2022-12-31T06:16:43.890Z,61.75
2022-12-31T06:19:10.183Z,61.42
2022-12-31T06:21:36.488Z,61.26
2022-12-31T06:24:02.743Z,61.25
2022-12-31T06:26:29.045Z,61.20
2022-12-31T06:28:55.320Z,61.60
2022-12-31T06:31:21.614Z,61.18
2022-12-31T06:33:47.971Z,61.35
2022-12-31T06:36:14.918Z,61.01
2022-12-31T06:38:41.648Z,60.61
2022-12-31T06:41:08.669Z,59.85
2022-12-31T06:43:34.954Z,60.03
2022-12-31T06:46:01.639Z,60.30
2022-12-31T06:48:27.956Z,60.78
2022-12-31T06:50:54.234Z,60.79
2022-12-31T06:53:20.544Z,60.65
2022-12-31T06:55:48.008Z,60.71
2022-12-31T06:58:14.464Z,61.01
2022-12-31T07:00:48.655Z,61.01
2022-12-31T07:03:18.040Z,63.00
2022-12-31T07:05:47.487Z,62.61
2022-12-31T07:08:13.726Z,61.87
2022-12-31T07:10:59.780Z,61.81
2022-12-31T07:13:44.677Z,62.35
2022-12-31T07:16:10.944Z,62.84
2022-12-31T07:18:40.225Z,63.79
2022-12-31T07:21:10.332Z,64.04
2022-12-31T07:23:36.632Z,63.99
2022-12-31T07:26:06.151Z,64.40
2022-12-31T07:28:41.320Z,64.32
2022-12-31T07:31:10.288Z,63.45
2022-12-31T07:33:51.610Z,63.12
2022-12-31T07:36:36.701Z,63.97
2022-12-31T07:39:05.638Z,63.55
2022-12-31T07:41:41.005Z,63.15
2022-12-31T07:44:09.840Z,63.17
2022-12-31T07:46:54.907Z,61.88
2022-12-31T07:49:21.389Z,61.83
2022-12-31T07:51:47.745Z,61.16
2022-12-31T07:54:14.549Z,62.19
2022-12-31T07:56:41.158Z,62.10
2022-12-31T07:59:26.231Z,62.22
2022-12-31T08:02:01.858Z,61.66
2022-12-31T08:04:34.202Z,61.20
2022-12-31T08:07:09.596Z,60.26
2022-12-31T08:09:39.522Z,60.51
2022-12-31T08:12:06.768Z,61.06
2022-12-31T08:14:33.026Z,61.28
2022-12-31T08:16:59.383Z,60.96
2022-12-31T08:19:30.530Z,61.37
2022-12-31T08:22:15.349Z,61.25
2022-12-31T08:24:59.386Z,60.49
2022-12-31T08:27:34.725Z,60.70
2022-12-31T08:30:10.652Z,61.26
2022-12-31T08:32:45.060Z,62.41
2022-12-31T08:35:14.707Z,63.30
2022-12-31T08:37:53.193Z,63.65
2022-12-31T08:40:24.199Z,63.98
2022-12-31T08:42:57.004Z,63.39
2022-12-31T08:45:28.532Z,63.40
2022-12-31T08:48:00.873Z,62.60
2022-12-31T08:50:27.265Z,63.49
2022-12-31T08:52:53.790Z,62.95
2022-12-31T08:55:21.031Z,62.60
2022-12-31T08:58:02.830Z,62.02
2022-12-31T09:00:29.152Z,61.32
2022-12-31T09:03:01.627Z,60.95
2022-12-31T09:05:30.882Z,61.97
2022-12-31T09:08:15.526Z,62.53
2022-12-31T09:10:44.894Z,62.92
2022-12-31T09:13:16.235Z,63.19
2022-12-31T09:15:43.847Z,62.69
2022-12-31T09:18:10.190Z,62.17
2022-12-31T09:20:44.732Z,61.59
2022-12-31T09:23:12.184Z,61.92
2022-12-31T09:26:01.970Z,60.93
2022-12-31T09:28:35.075Z,60.61
2022-12-31T09:31:21.649Z,61.66
2022-12-31T09:33:55.606Z,61.56
2022-12-31T09:36:32.385Z,61.23
2022-12-31T09:39:12.728Z,60.92
2022-12-31T09:41:57.723Z,60.21
2022-12-31T09:44:42.934Z,59.99
2022-12-31T09:47:28.139Z,61.22
2022-12-31T09:50:11.077Z,60.93
2022-12-31T09:52:56.065Z,61.42
2022-12-31T09:55:40.018Z,60.86
2022-12-31T09:58:18.248Z,60.90
2022-12-31T10:00:48.155Z,60.17
2022-12-31T10:03:23.596Z,60.18
2022-12-31T10:05:57.065Z,62.12
2022-12-31T10:08:32.367Z,63.21
2022-12-31T10:10:59.441Z,61.65
2022-12-31T10:13:40.836Z,61.67
2022-12-31T10:16:25.957Z,61.32
2022-12-31T10:18:55.056Z,61.38
2022-12-31T10:21:40.215Z,61.40
2022-12-31T10:24:25.295Z,62.65
2022-12-31T10:27:10.453Z,62.72
2022-12-31T10:29:49.489Z,62.88
2022-12-31T10:32:15.734Z,62.15
2022-12-31T10:34:41.980Z,62.24
2022-12-31T10:37:10.343Z,61.65
2022-12-31T10:39:58.911Z,62.28
2022-12-31T10:42:40.476Z,61.98
2022-12-31T10:45:16.870Z,61.75
2022-12-31T10:47:43.074Z,60.65
2022-12-31T10:50:15.991Z,60.73
2022-12-31T10:52:42.423Z,61.82
2022-12-31T10:55:27.562Z,62.51
2022-12-31T10:58:12.551Z,61.90
2022-12-31T11:00:50.929Z,61.07
2022-12-31T11:03:35.650Z,61.11
2022-12-31T11:06:20.627Z,62.96
2022-12-31T11:08:49.908Z,62.28
2022-12-31T11:11:33.958Z,62.16
2022-12-31T11:14:00.204Z,61.94
2022-12-31T11:16:26.598Z,61.82
2022-12-31T11:18:58.924Z,61.59
2022-12-31T11:21:44.259Z,61.83
2022-12-31T11:24:10.477Z,61.87
2022-12-31T11:26:54.135Z,61.42
2022-12-31T11:29:39.408Z,61.02
2022-12-31T11:32:05.654Z,59.96
2022-12-31T11:34:38.103Z,60.42
2022-12-31T11:37:04.327Z,60.61
2022-12-31T11:39:43.425Z,60.54
2022-12-31T11:42:14.371Z,60.33
2022-12-31T11:44:49.534Z,59.50
2022-12-31T11:47:28.368Z,59.76
2022-12-31T11:50:15.304Z,59.88
2022-12-31T11:52:47.788Z,59.90
2022-12-31T11:55:32.869Z,60.60
2022-12-31T11:57:59.622Z,60.70
2022-12-31T12:00:26.501Z,59.95
2022-12-31T12:02:54.052Z,60.04
2022-12-31T12:05:21.385Z,60.00
2022-12-31T12:07:48.213Z,59.81
2022-12-31T12:10:17.623Z,60.27
2022-12-31T12:12:43.924Z,60.25
2022-12-31T12:15:10.694Z,59.91
2022-12-31T12:17:37.040Z,59.79
2022-12-31T12:20:04.678Z,60.22
2022-12-31T12:22:31.594Z,60.21
2022-12-31T12:25:15.892Z,60.05
2022-12-31T12:27:42.208Z,59.97
2022-12-31T12:30:09.602Z,59.90
2022-12-31T12:32:35.890Z,59.70
2022-12-31T12:35:12.318Z,59.51
2022-12-31T12:37:38.614Z,59.37
2022-12-31T12:40:18.408Z,58.69
2022-12-31T12:42:51.441Z,58.82
2022-12-31T12:45:18.887Z,58.22
2022-12-31T12:47:45.914Z,56.86
2022-12-31T12:50:18.997Z,57.41
2022-12-31T12:52:49.303Z,58.89
2022-12-31T12:55:17.099Z,57.80
2022-12-31T12:57:49.318Z,57.62
2022-12-31T13:00:15.589Z,56.95
2022-12-31T13:02:41.912Z,56.90
2022-12-31T13:05:11.290Z,56.36
2022-12-31T13:07:57.877Z,57.09
2022-12-31T13:10:43.138Z,55.25
2022-12-31T13:13:25.711Z,55.49
2022-12-31T13:16:01.207Z,56.55
2022-12-31T13:18:46.373Z,55.96
2022-12-31T13:21:24.165Z,57.04
2022-12-31T13:23:53.586Z,57.34
2022-12-31T13:26:31.798Z,57.54
2022-12-31T13:28:58.076Z,57.44
2022-12-31T13:31:34.326Z,56.88
2022-12-31T13:34:27.090Z,56.89
2022-12-31T13:36:53.908Z,56.71
2022-12-31T13:39:20.978Z,57.01
2022-12-31T13:42:09.083Z,57.35
2022-12-31T13:44:36.439Z,57.81
2022-12-31T13:47:22.930Z,58.08
2022-12-31T13:49:55.291Z,56.95
2022-12-31T13:52:27.640Z,57.12
2022-12-31T13:55:03.808Z,57.39
2022-12-31T13:57:36.119Z,57.00
2022-12-31T14:00:03.682Z,56.62
2022-12-31T14:02:35.825Z,57.31
2022-12-31T14:05:11.245Z,57.82
2022-12-31T14:07:45.290Z,57.77
2022-12-31T14:10:13.384Z,57.20
2022-12-31T14:12:41.561Z,57.33
2022-12-31T14:15:24.157Z,57.09
2022-12-31T14:17:59.496Z,57.18
2022-12-31T14:20:25.743Z,57.47
2022-12-31T14:22:51.943Z,58.07
2022-12-31T14:25:22.784Z,57.68
2022-12-31T14:27:49.122Z,57.43
2022-12-31T14:30:19.717Z,56.86
2022-12-31T14:33:04.769Z,57.08
2022-12-31T14:35:35.035Z,56.79
2022-12-31T14:38:20.200Z,56.81
2022-12-31T14:41:04.732Z,56.98
2022-12-31T14:43:44.717Z,56.87
2022-12-31T14:46:32.844Z,55.92
2022-12-31T14:49:02.568Z,55.19
2022-12-31T14:51:31.837Z,55.31
2022-12-31T14:53:58.269Z,55.11
2022-12-31T14:56:29.062Z,54.67
2022-12-31T14:58:56.300Z,54.79
2022-12-31T15:01:25.854Z,55.12
2022-12-31T15:03:53.014Z,55.21
2022-12-31T15:06:32.434Z,55.12
2022-12-31T15:09:17.462Z,54.10
2022-12-31T15:12:16.156Z,54.05
2022-12-31T15:14:45.318Z,54.08
2022-12-31T15:17:23.808Z,53.99
2022-12-31T15:19:53.074Z,54.21
2022-12-31T15:22:22.512Z,54.04
2022-12-31T15:24:48.851Z,53.85
2022-12-31T15:27:27.424Z,54.03
2022-12-31T15:29:53.720Z,54.32
2022-12-31T15:32:20.684Z,54.58
2022-12-31T15:34:46.958Z,53.72
2022-12-31T15:37:28.327Z,54.22
2022-12-31T15:40:03.884Z,54.75
2022-12-31T15:42:49.482Z,54.39
2022-12-31T15:45:24.359Z,54.07
2022-12-31T15:47:52.929Z,53.73
2022-12-31T15:50:20.177Z,53.90
2022-12-31T15:52:50.552Z,53.59
2022-12-31T15:55:20.153Z,52.94
2022-12-31T15:57:46.469Z,53.13
2022-12-31T16:00:17.177Z,53.76
2022-12-31T16:02:43.537Z,53.73
2022-12-31T16:05:30.142Z,53.52
2022-12-31T16:07:57.637Z,54.00
2022-12-31T16:10:27.305Z,54.46
2022-12-31T16:12:54.228Z,54.08
2022-12-31T16:15:21.559Z,54.42
2022-12-31T16:17:56.876Z,54.22
2022-12-31T16:20:24.039Z,54.40
2022-12-31T16:22:50.933Z,53.82
2022-12-31T16:25:30.652Z,54.59
2022-12-31T16:27:57.737Z,53.74
2022-12-31T16:30:30.660Z,53.74
2022-12-31T16:33:00.774Z,53.23
2022-12-31T16:35:27.078Z,53.84
2022-12-31T16:38:03.631Z,53.57
2022-12-31T16:40:29.948Z,53.36
2022-12-31T16:42:56.260Z,53.34
2022-12-31T16:45:32.854Z,53.50
2022-12-31T16:48:00.894Z,53.48
2022-12-31T16:50:27.161Z,53.64
2022-12-31T16:53:00.274Z,53.80
2022-12-31T16:55:27.221Z,54.31
2022-12-31T16:57:55.709Z,53.69
2022-12-31T17:00:22.029Z,53.61
2022-12-31T17:03:03.525Z,53.73
2022-12-31T17:05:29.910Z,53.75
2022-12-31T17:07:56.234Z,53.41
2022-12-31T17:10:23.464Z,53.65
2022-12-31T17:15:43.232Z,53.91
2022-12-31T17:18:13.618Z,53.91
2022-12-31T17:20:39.906Z,53.66
2022-12-31T17:23:07.217Z,53.70
2022-12-31T17:25:34.026Z,54.36
2022-12-31T17:28:00.871Z,53.78
2022-12-31T17:30:30.241Z,53.65
2022-12-31T17:32:59.946Z,53.34
2022-12-31T17:35:26.838Z,53.00
2022-12-31T17:37:53.143Z,53.46
2022-12-31T17:40:50.998Z,53.39
2022-12-31T17:43:18.006Z,53.73
2022-12-31T17:45:44.431Z,53.66
2022-12-31T17:48:11.779Z,53.38
2022-12-31T17:50:45.751Z,53.51
2022-12-31T17:53:12.093Z,53.44
2022-12-31T17:55:38.510Z,53.67
2022-12-31T17:58:05.073Z,53.70
2022-12-31T18:00:33.085Z,54.54
2022-12-31T18:02:59.883Z,54.21
2022-12-31T18:05:26.268Z,53.55
2022-12-31T18:07:52.679Z,53.19
2022-12-31T18:10:19.743Z,53.39
2022-12-31T18:12:46.509Z,53.23
2022-12-31T18:15:16.574Z,53.29
2022-12-31T18:17:42.870Z,53.79
2022-12-31T18:20:09.440Z,53.44
2022-12-31T18:22:35.845Z,53.67
2022-12-31T18:25:02.202Z,54.13
2022-12-31T18:27:30.542Z,54.06
2022-12-31T18:30:04.089Z,53.45
2022-12-31T18:32:34.232Z,53.11
2022-12-31T18:35:01.835Z,53.13
2022-12-31T18:37:28.198Z,53.02
2022-12-31T18:39:54.471Z,53.28
2022-12-31T18:42:20.765Z,53.69
2022-12-31T18:44:47.050Z,53.37
2022-12-31T18:47:13.953Z,53.02
2022-12-31T18:49:40.543Z,53.48
2022-12-31T18:52:06.923Z,52.79
2022-12-31T18:54:33.240Z,52.94
2022-12-31T18:56:59.578Z,52.73
2022-12-31T18:59:25.898Z,52.30
2022-12-31T19:01:52.318Z,52.44
2022-12-31T19:04:27.570Z,52.66
2022-12-31T19:06:54.696Z,52.62
2022-12-31T19:09:43.871Z,53.08
2022-12-31T19:12:09.108Z,53.15
2022-12-31T19:14:35.391Z,53.33
2022-12-31T19:19:26.913Z,53.55
2022-12-31T19:21:53.212Z,52.91
2022-12-31T19:24:20.343Z,53.30
2022-12-31T19:26:46.615Z,52.83
2022-12-31T19:29:19.856Z,52.92
2022-12-31T19:31:46.321Z,52.78
2022-12-31T19:34:12.653Z,53.06
2022-12-31T19:36:43.859Z,52.96
2022-12-31T19:39:14.329Z,53.14
2022-12-31T19:41:41.718Z,53.78
2022-12-31T19:44:12.011Z,53.00
2022-12-31T19:46:38.295Z,52.97
2022-12-31T19:49:04.578Z,52.95
2022-12-31T19:51:30.868Z,53.22
2022-12-31T19:53:57.155Z,52.81
2022-12-31T19:56:23.445Z,52.98
2022-12-31T19:58:49.719Z,52.75
2022-12-31T20:01:19.996Z,52.48
2022-12-31T20:03:46.522Z,52.65
2022-12-31T20:06:13.429Z,52.44
2022-12-31T20:08:39.843Z,52.72
2022-12-31T20:11:13.363Z,52.33
2022-12-31T20:13:39.921Z,52.65
2022-12-31T20:16:07.111Z,52.34
2022-12-31T20:18:33.491Z,52.75
2022-12-31T20:20:59.778Z,53.08
2022-12-31T20:23:26.060Z,53.44
2022-12-31T20:26:01.431Z,52.89
2022-12-31T20:28:27.712Z,53.53
2022-12-31T20:30:54.153Z,52.92
2022-12-31T20:33:20.582Z,52.66
2022-12-31T20:35:46.997Z,53.12
2022-12-31T20:38:13.322Z,52.44
2022-12-31T20:40:46.161Z,51.90
2022-12-31T20:43:12.892Z,52.19
2022-12-31T20:45:39.767Z,51.37
2022-12-31T20:48:06.043Z,51.38
2022-12-31T20:50:32.326Z,51.73
2022-12-31T20:52:58.672Z,52.19
2022-12-31T20:55:25.191Z,52.10
2022-12-31T20:57:52.535Z,52.19
2022-12-31T21:00:18.957Z,52.45
2022-12-31T21:02:51.506Z,52.02
2022-12-31T21:05:22.988Z,52.27
2022-12-31T21:07:49.336Z,52.77
2022-12-31T21:10:16.941Z,53.05
2022-12-31T21:12:43.427Z,53.29
2022-12-31T21:15:10.674Z,52.02
2022-12-31T21:17:36.975Z,52.00
2022-12-31T21:20:03.433Z,52.35
2022-12-31T21:22:30.022Z,52.15
2022-12-31T21:24:56.326Z,52.16
2022-12-31T21:27:22.617Z,51.70
2022-12-31T21:30:16.891Z,51.48
2022-12-31T21:32:35.159Z,51.81
2022-12-31T21:35:40.415Z,51.82
2022-12-31T21:37:59.009Z,51.98
2022-12-31T21:40:27.342Z,52.07
2022-12-31T21:42:53.616Z,51.75
2022-12-31T21:45:19.908Z,51.75
2022-12-31T21:48:04.565Z,51.44
2022-12-31T21:50:30.835Z,51.47
2022-12-31T21:52:57.172Z,51.88
2022-12-31T21:55:41.944Z,51.97
2022-12-31T22:01:13.428Z,52.35
2022-12-31T22:03:39.864Z,52.73
2022-12-31T22:06:10.455Z,52.30
2022-12-31T22:08:36.762Z,53.03
2022-12-31T22:11:03.044Z,52.37
2022-12-31T22:13:29.415Z,51.83
2022-12-31T22:16:01.779Z,51.67
2022-12-31T22:18:32.126Z,51.02
2022-12-31T22:21:01.956Z,50.80
2022-12-31T22:23:28.683Z,50.75
2022-12-31T22:25:54.975Z,50.71
2022-12-31T22:28:38.244Z,51.10
2022-12-31T22:31:05.309Z,51.62
2022-12-31T22:33:31.610Z,51.35
2022-12-31T22:35:58.635Z,51.53
2022-12-31T22:38:25.467Z,51.50
2022-12-31T22:40:51.838Z,51.75
2022-12-31T22:43:18.138Z,51.12
2022-12-31T22:45:44.431Z,51.11
2022-12-31T22:48:10.939Z,51.24
2022-12-31T22:50:37.251Z,51.40
2022-12-31T22:53:03.551Z,51.08
2022-12-31T22:55:29.871Z,51.03
2022-12-31T22:57:56.163Z,51.97
2022-12-31T23:00:22.462Z,51.16
2022-12-31T23:02:48.821Z,50.88
2022-12-31T23:05:16.483Z,51.39
2022-12-31T23:07:42.981Z,50.93
2022-12-31T23:10:28.003Z,51.49
2022-12-31T23:12:54.289Z,51.22
2022-12-31T23:15:39.192Z,51.42
2022-12-31T23:18:24.069Z,51.13
2022-12-31T23:21:08.826Z,51.08
2022-12-31T23:23:35.159Z,51.40
2022-12-31T23:26:01.854Z,50.52
2022-12-31T23:28:28.152Z,50.02
2022-12-31T23:30:54.476Z,50.33
2022-12-31T23:33:21.663Z,50.25
2022-12-31T23:35:47.977Z,50.31
2022-12-31T23:38:16.485Z,50.24
2022-12-31T23:40:42.866Z,50.78
2022-12-31T23:43:09.364Z,51.18
2022-12-31T23:45:35.958Z,51.22
2022-12-31T23:48:02.290Z,50.83
2022-12-31T23:50:28.565Z,50.88
2022-12-31T23:52:54.875Z,50.61
2022-12-31T23:55:21.220Z,50.51
2022-12-31T23:57:47.517Z,49.81
